首页
METAR-TAF:

METAR-TAF

机场 :

Williamsburg-Jamestown Airport

威廉斯堡, 弗吉尼亚州, 美国

纬度: 37-14-21N, 经度: 076-42-57W, 海拔: 15米

当前天气观测

该预报发布于22分钟前的01:55 UTC
静风
温度 16°C
湿度 94%
气压 1007 hPa

METAR: KJGG 210155Z AUTO 00000KT 16/15 A2974 RMK AO1

时间: 22:17 (02:17 UTC)


TAF: 丢失

超过4000个机场的气象观测和天气预报(METAR&TAF报告)。

可查询的气象台以黄色和红色小点在地图上表示。

将鼠标移到小点上方,可查看气象台名称。

然后点击查看天气观测和预报。

如需切换地图:点击带黑十字的绿色按钮放大地图;点击带横线的绿色按钮缩小地图;或者点击绿色箭头查看邻近地区的地图。


METAR-TAF: